TimeCDT,TemperatureF,Dew PointF,Humidity,Sea Level PressureIn,VisibilityMPH,Wind Direction,Wind SpeedMPH,Gust SpeedMPH,PrecipitationIn,Events,Conditions,WindDirDegrees,DateUTC
12:15 AM,54.5,51.6,90,30.22,10.0,Calm,Calm,-,N/A,,Scattered Clouds,0,2013-08-17 05:15:00
12:35 AM,55.6,53.2,92,30.22,10.0,Calm,Calm,-,N/A,,Clear,0,2013-08-17 05:35:00
12:55 AM,54.1,52.2,93,30.22,10.0,Calm,Calm,-,N/A,,Clear,0,2013-08-17 05:55:00
1:15 AM,55.4,52.5,90,30.22,10.0,Calm,Calm,-,N/A,,Scattered Clouds,0,2013-08-17 06:15:00
1:35 AM,54.3,51.8,91,30.22,10.0,Calm,Calm,-,N/A,,Scattered Clouds,0,2013-08-17 06:35:00
1:55 AM,56.7,53.4,89,30.22,10.0,North,3.5,-,N/A,,Clear,10,2013-08-17 06:55:00
2:15 AM,55.2,52.5,91,30.21,10.0,Calm,Calm,-,N/A,,Clear,0,2013-08-17 07:15:00
2:35 AM,52.7,50.2,91,30.21,10.0,Calm,Calm,-,N/A,,Clear,0,2013-08-17 07:35:00
2:55 AM,52.2,50.7,95,30.22,10.0,Calm,Calm,-,N/A,,Scattered Clouds,0,2013-08-17 07:55:00
3:15 AM,52.5,51.8,97,30.21,10.0,Calm,Calm,-,N/A,,Clear,0,2013-08-17 08:15:00
3:35 AM,52.3,51.3,96,30.22,10.0,Calm,Calm,-,N/A,,Clear,0,2013-08-17 08:35:00
3:55 AM,51.8,50.2,94,30.22,10.0,Calm,Calm,-,N/A,,Clear,0,2013-08-17 08:55:00
4:15 AM,52.9,51.1,94,30.22,10.0,Calm,Calm,-,N/A,,Clear,0,2013-08-17 09:15:00
4:35 AM,50.9,49.1,94,30.22,10.0,Calm,Calm,-,N/A,,Clear,0,2013-08-17 09:35:00
4:55 AM,51.8,50.2,94,30.22,10.0,Calm,Calm,-,N/A,,Clear,0,2013-08-17 09:55:00
5:15 AM,51.4,50.4,96,30.23,10.0,Calm,Calm,-,N/A,,Clear,0,2013-08-17 10:15:00
5:35 AM,51.8,50.7,96,30.23,10.0,Calm,Calm,-,N/A,,Clear,0,2013-08-17 10:35:00
5:55 AM,50.7,49.6,96,30.24,10.0,Calm,Calm,-,N/A,,Clear,0,2013-08-17 10:55:00
6:15 AM,52.5,51.3,95,30.24,10.0,Calm,Calm,-,N/A,,Clear,0,2013-08-17 11:15:00
6:35 AM,52.3,51.1,95,30.24,10.0,Calm,Calm,-,N/A,,Clear,0,2013-08-17 11:35:00
6:55 AM,53.4,52.5,97,30.25,10.0,Calm,Calm,-,N/A,,Clear,0,2013-08-17 11:55:00
7:15 AM,57.7,55.8,93,30.25,10.0,Calm,Calm,-,N/A,,Clear,0,2013-08-17 12:15:00
7:35 AM,59.0,56.3,91,30.26,10.0,Calm,Calm,-,N/A,,Clear,0,2013-08-17 12:35:00
7:55 AM,59.5,56.8,91,30.26,10.0,Calm,Calm,-,N/A,,Clear,0,2013-08-17 12:55:00
8:15 AM,61.7,57.9,87,30.26,10.0,Calm,Calm,-,N/A,,Clear,0,2013-08-17 13:15:00
8:35 AM,63.5,57.7,81,30.26,10.0,East,3.5,-,N/A,,Clear,80,2013-08-17 13:35:00
8:55 AM,65.1,58.1,78,30.26,10.0,East,5.8,-,N/A,,Clear,90,2013-08-17 13:55:00
9:15 AM,67.1,56.7,69,30.26,10.0,East,5.8,-,N/A,,Clear,90,2013-08-17 14:15:00
9:35 AM,68.9,57.4,67,30.26,10.0,East,3.5,-,N/A,,Clear,100,2013-08-17 14:35:00
9:55 AM,70.7,57.6,63,30.26,10.0,ESE,6.9,-,N/A,,Clear,110,2013-08-17 14:55:00
10:15 AM,71.1,57.4,62,30.26,10.0,East,3.5,-,N/A,,Clear,90,2013-08-17 15:15:00
10:35 AM,72.0,56.8,59,30.26,10.0,ESE,6.9,-,N/A,,Clear,120,2013-08-17 15:35:00
10:55 AM,72.9,57.0,57,30.26,10.0,ESE,5.8,-,N/A,,Clear,110,2013-08-17 15:55:00
11:15 AM,73.0,56.3,56,30.26,10.0,ESE,9.2,-,N/A,,Scattered Clouds,110,2013-08-17 16:15:00
11:35 AM,74.3,50.9,44,30.26,10.0,East,9.2,-,N/A,,Scattered Clouds,90,2013-08-17 16:35:00
11:55 AM,74.8,51.8,44,30.25,10.0,East,11.5,-,N/A,,Clear,90,2013-08-17 16:55:00
12:15 PM,75.2,50.4,42,30.25,10.0,East,9.2,-,N/A,,Clear,100,2013-08-17 17:15:00
12:35 PM,75.4,51.4,43,30.24,10.0,East,10.4,-,N/A,,Clear,80,2013-08-17 17:35:00
12:55 PM,75.9,53.1,45,30.24,10.0,ESE,5.8,-,N/A,,Clear,110,2013-08-17 17:55:00
1:15 PM,75.9,53.1,45,30.24,10.0,East,8.1,-,N/A,,Scattered Clouds,100,2013-08-17 18:15:00
1:35 PM,76.3,52.3,43,30.23,10.0,SE,10.4,-,N/A,,Scattered Clouds,130,2013-08-17 18:35:00
1:55 PM,77.0,52.0,42,30.22,10.0,ESE,9.2,-,N/A,,Scattered Clouds,120,2013-08-17 18:55:00
2:15 PM,76.6,50.7,40,30.22,10.0,SE,8.1,-,N/A,,Clear,140,2013-08-17 19:15:00
2:35 PM,77.0,50.0,39,30.22,10.0,SE,5.8,-,N/A,,Clear,130,2013-08-17 19:35:00
2:55 PM,76.8,49.5,38,30.21,10.0,SSE,8.1,-,N/A,,Clear,150,2013-08-17 19:55:00
3:15 PM,76.3,49.5,39,30.21,10.0,South,3.5,-,N/A,,Clear,180,2013-08-17 20:15:00
3:35 PM,77.2,51.6,41,30.21,10.0,ESE,8.1,-,N/A,,Clear,120,2013-08-17 20:35:00
3:55 PM,76.1,52.7,44,30.21,10.0,SE,8.1,-,N/A,,Clear,140,2013-08-17 20:55:00
4:15 PM,75.9,52.7,44,30.20,10.0,ESE,6.9,-,N/A,,Clear,110,2013-08-17 21:15:00
4:35 PM,74.7,52.2,45,30.20,10.0,ENE,5.8,-,N/A,,Clear,70,2013-08-17 21:35:00
4:55 PM,74.3,54.0,49,30.20,10.0,SE,5.8,-,N/A,,Clear,140,2013-08-17 21:55:00
5:15 PM,74.1,54.0,49,30.20,10.0,SSE,4.6,-,N/A,,Clear,150,2013-08-17 22:15:00
5:35 PM,74.5,54.3,49,30.20,10.0,ESE,5.8,-,N/A,,Clear,110,2013-08-17 22:35:00
5:55 PM,74.5,54.1,49,30.20,10.0,SE,3.5,-,N/A,,Clear,130,2013-08-17 22:55:00
6:15 PM,73.6,55.2,53,30.20,10.0,Calm,Calm,-,N/A,,Clear,0,2013-08-17 23:15:00
6:35 PM,73.0,56.3,56,30.20,10.0,Calm,Calm,-,N/A,,Clear,0,2013-08-17 23:35:00
6:55 PM,72.5,58.6,62,30.19,10.0,Calm,Calm,-,N/A,,Clear,0,2013-08-17 23:55:00
7:15 PM,70.0,60.4,72,30.20,10.0,Calm,Calm,-,N/A,,Clear,0,2013-08-18 00:15:00
7:35 PM,66.9,61.3,82,30.20,10.0,Calm,Calm,-,N/A,,Clear,0,2013-08-18 00:35:00
7:55 PM,64.4,57.2,77,30.20,10.0,NNW,10.4,-,N/A,,Clear,330,2013-08-18 00:55:00
8:15 PM,65.1,58.3,78,30.20,10.0,North,3.5,-,N/A,,Scattered Clouds,350,2013-08-18 01:15:00
8:35 PM,63.7,58.3,83,30.20,10.0,North,3.5,-,N/A,,Scattered Clouds,360,2013-08-18 01:35:00
8:55 PM,62.4,57.7,85,30.20,10.0,Calm,Calm,-,N/A,,Clear,0,2013-08-18 01:55:00
9:15 PM,61.2,55.9,83,30.20,10.0,Calm,Calm,-,N/A,,Scattered Clouds,0,2013-08-18 02:15:00
9:35 PM,60.1,57.0,90,30.20,10.0,Calm,Calm,-,N/A,,Clear,0,2013-08-18 02:35:00
9:55 PM,59.7,56.7,90,30.20,10.0,Calm,Calm,-,N/A,,Scattered Clouds,0,2013-08-18 02:55:00
10:15 PM,59.0,56.8,93,30.20,10.0,Calm,Calm,-,N/A,,Scattered Clouds,0,2013-08-18 03:15:00
10:35 PM,58.1,55.8,92,30.20,10.0,Calm,Calm,-,N/A,,Clear,0,2013-08-18 03:35:00
10:55 PM,56.5,54.5,93,30.20,10.0,Calm,Calm,-,N/A,,Clear,0,2013-08-18 03:55:00
11:15 PM,56.3,54.1,92,30.20,10.0,Calm,Calm,-,N/A,,Clear,0,2013-08-18 04:15:00
11:35 PM,56.7,55.2,95,30.19,10.0,Calm,Calm,-,N/A,,Scattered Clouds,0,2013-08-18 04:35:00
11:55 PM,56.7,55.4,96,30.19,10.0,Calm,Calm,-,N/A,,Clear,0,2013-08-18 04:55:00